createdAt,value
2017-11-10T00:00:26.883Z,947.6
2017-11-10T00:01:35.039Z,947.6
2017-11-10T00:02:43.056Z,947.6
2017-11-10T00:03:51.143Z,947.5
2017-11-10T00:04:59.230Z,947.5
2017-11-10T00:06:07.434Z,947.6
2017-11-10T00:07:15.496Z,947.6
2017-11-10T00:08:23.488Z,947.6
2017-11-10T00:09:31.574Z,947.7
2017-11-10T00:10:39.658Z,947.7
2017-11-10T00:11:47.744Z,947.8
2017-11-10T00:12:55.891Z,947.9
2017-11-10T00:14:03.923Z,947.9
2017-11-10T00:15:12.022Z,947.9
2017-11-10T00:16:20.106Z,947.9
2017-11-10T00:17:28.189Z,948.0
2017-11-10T00:18:36.331Z,947.9
2017-11-10T00:19:44.363Z,947.9
2017-11-10T00:20:52.488Z,947.9
2017-11-10T00:22:00.657Z,947.9
2017-11-10T00:23:08.622Z,947.8
2017-11-10T00:24:16.769Z,947.8
2017-11-10T00:25:24.799Z,947.8
2017-11-10T00:26:32.883Z,947.8
2017-11-10T00:27:40.973Z,947.9
2017-11-10T00:28:49.066Z,947.8
2017-11-10T00:29:57.352Z,947.8
2017-11-10T00:31:05.230Z,947.8
2017-11-10T00:32:13.318Z,947.8
2017-11-10T00:33:21.403Z,947.8
2017-11-10T00:34:29.491Z,947.8
2017-11-10T00:35:37.696Z,947.8
2017-11-10T00:36:45.661Z,947.8
2017-11-10T00:37:53.806Z,947.8
2017-11-10T00:39:01.983Z,947.8
2017-11-10T00:40:09.923Z,947.9
2017-11-10T00:41:18.066Z,947.9
2017-11-10T00:42:26.103Z,947.9
2017-11-10T00:43:34.232Z,947.9
2017-11-10T00:44:42.270Z,947.9
2017-11-10T00:45:50.361Z,948.0
2017-11-10T00:46:58.499Z,948.0
2017-11-10T00:48:06.530Z,948.0
2017-11-10T00:49:14.614Z,948.0
2017-11-10T00:50:22.861Z,948.0
2017-11-10T00:51:30.948Z,948.0
2017-11-10T00:52:39.259Z,948.0
2017-11-10T00:53:47.241Z,948.0
2017-11-10T00:54:55.227Z,948.0
2017-11-10T00:56:03.462Z,948.0
2017-11-10T00:57:11.402Z,948.0
2017-11-10T00:58:19.545Z,948.0
2017-11-10T00:59:27.577Z,948.0
2017-11-10T01:00:35.692Z,948.0
2017-11-10T01:01:43.751Z,948.0
2017-11-10T01:02:51.842Z,948.0
2017-11-10T01:03:59.976Z,948.0
2017-11-10T01:05:08.006Z,948.0
2017-11-10T01:06:16.173Z,948.1
2017-11-10T01:07:24.179Z,948.1
2017-11-10T01:08:32.271Z,948.1
2017-11-10T01:09:40.472Z,948.1
2017-11-10T01:10:48.498Z,948.1
2017-11-10T01:11:56.526Z,948.1
2017-11-10T01:13:04.612Z,948.0
2017-11-10T01:14:12.702Z,948.0
2017-11-10T01:15:20.991Z,948.0
2017-11-10T01:16:28.872Z,948.0
2017-11-10T01:17:36.965Z,948.0
2017-11-10T01:18:45.073Z,948.0
2017-11-10T01:19:53.198Z,948.0
2017-11-10T01:21:01.304Z,948.0
2017-11-10T01:22:09.334Z,948.0
2017-11-10T01:23:17.420Z,947.9
2017-11-10T01:24:25.516Z,947.9
2017-11-10T01:25:33.723Z,947.9
2017-11-10T01:26:41.748Z,947.9
2017-11-10T01:27:49.777Z,947.9
2017-11-10T01:28:57.969Z,947.8
2017-11-10T01:30:06.052Z,947.8
2017-11-10T01:31:14.142Z,947.8
2017-11-10T01:32:22.288Z,947.8
2017-11-10T01:33:30.314Z,947.7
2017-11-10T01:34:38.401Z,947.7
2017-11-10T01:35:46.488Z,947.7
2017-11-10T01:36:54.573Z,947.7
2017-11-10T01:38:02.799Z,947.6
2017-11-10T01:39:10.762Z,947.7
2017-11-10T01:40:18.851Z,947.6
2017-11-10T01:41:26.994Z,947.6
2017-11-10T01:42:35.035Z,947.6
2017-11-10T01:43:43.177Z,947.7
2017-11-10T01:44:51.210Z,947.7
2017-11-10T01:45:59.293Z,947.7
2017-11-10T01:47:07.380Z,947.7
2017-11-10T01:48:15.577Z,947.7
2017-11-10T01:49:23.612Z,947.7
2017-11-10T01:50:31.645Z,947.6
2017-11-10T01:51:39.905Z,947.6
2017-11-10T01:52:47.812Z,947.5
2017-11-10T01:53:55.910Z,947.5
2017-11-10T01:55:04.117Z,947.5
2017-11-10T01:56:12.231Z,947.5
2017-11-10T01:57:20.226Z,947.5
2017-11-10T01:58:28.256Z,947.5
2017-11-10T01:59:36.343Z,947.5
2017-11-10T02:00:44.550Z,947.5
2017-11-10T02:01:52.517Z,947.5
2017-11-10T02:03:00.605Z,947.4
2017-11-10T02:04:08.886Z,947.5
2017-11-10T02:05:16.775Z,947.5
2017-11-10T02:06:24.918Z,947.4
2017-11-10T02:07:32.948Z,947.4
2017-11-10T02:08:41.044Z,947.4
2017-11-10T02:09:49.246Z,947.3
2017-11-10T02:10:57.290Z,947.3
2017-11-10T02:12:05.350Z,947.2
2017-11-10T02:13:13.500Z,947.2
2017-11-10T02:14:21.607Z,947.2
2017-11-10T02:15:29.551Z,947.1
2017-11-10T02:16:37.639Z,947.1
2017-11-10T02:17:45.788Z,947.1
2017-11-10T02:18:53.931Z,947.0
2017-11-10T02:20:01.893Z,947.0
2017-11-10T02:21:09.991Z,947.0
2017-11-10T02:22:18.079Z,947.0
2017-11-10T02:23:26.285Z,947.1
2017-11-10T02:24:34.262Z,947.0
2017-11-10T02:25:42.347Z,946.9
2017-11-10T02:26:50.433Z,946.9
2017-11-10T02:27:58.519Z,946.9
2017-11-10T02:29:06.660Z,946.9
2017-11-10T02:30:14.693Z,946.9
2017-11-10T02:31:22.779Z,946.9
2017-11-10T02:32:30.879Z,947.0
2017-11-10T02:33:39.112Z,946.9
2017-11-10T02:34:47.172Z,947.0
2017-11-10T02:35:55.145Z,946.9
2017-11-10T02:37:03.228Z,946.9
2017-11-10T02:38:11.347Z,946.9
2017-11-10T02:39:19.490Z,946.9
2017-11-10T02:40:27.607Z,946.9
2017-11-10T02:41:35.829Z,946.9
2017-11-10T02:42:43.706Z,946.8
2017-11-10T02:43:51.761Z,946.8
2017-11-10T02:44:59.962Z,946.8
2017-11-10T02:46:07.982Z,946.8
2017-11-10T02:47:16.034Z,946.8
2017-11-10T02:48:24.102Z,946.7
2017-11-10T02:49:32.190Z,946.7
2017-11-10T02:50:40.278Z,946.7
2017-11-10T02:51:48.501Z,946.6
2017-11-10T02:52:56.462Z,946.7
2017-11-10T02:54:04.547Z,946.6
2017-11-10T02:55:12.634Z,946.6
2017-11-10T02:56:20.726Z,946.6
2017-11-10T02:57:28.882Z,946.5
2017-11-10T02:58:36.901Z,946.5
2017-11-10T02:59:45.000Z,946.5
2017-11-10T03:00:53.306Z,946.4
2017-11-10T03:02:01.169Z,946.4
2017-11-10T03:03:09.311Z,946.4
2017-11-10T03:04:17.342Z,946.4
2017-11-10T03:05:25.450Z,946.4
2017-11-10T03:06:33.515Z,946.5
2017-11-10T03:07:41.602Z,946.5
2017-11-10T03:08:49.746Z,946.5
2017-11-10T03:09:57.776Z,946.5
2017-11-10T03:11:05.863Z,946.6
2017-11-10T03:12:13.948Z,946.6
2017-11-10T03:13:22.034Z,946.7
2017-11-10T03:14:30.362Z,946.7
2017-11-10T03:15:38.206Z,946.8
2017-11-10T03:16:46.432Z,946.8
2017-11-10T03:17:54.433Z,946.9
2017-11-10T03:19:02.518Z,946.9
2017-11-10T03:20:10.660Z,946.9
2017-11-10T03:21:18.690Z,946.9
2017-11-10T03:22:26.778Z,947.0
2017-11-10T03:23:35.034Z,947.0
2017-11-10T03:24:43.087Z,947.0
2017-11-10T03:25:51.092Z,947.0
2017-11-10T03:26:59.123Z,947.0
2017-11-10T03:28:07.207Z,947.0
2017-11-10T03:29:15.293Z,947.0
2017-11-10T03:30:23.383Z,947.0
2017-11-10T03:31:31.585Z,947.0
2017-11-10T03:32:39.672Z,947.0
2017-11-10T03:33:47.649Z,946.9
2017-11-10T03:34:55.731Z,946.8
2017-11-10T03:36:03.819Z,946.8
2017-11-10T03:37:12.023Z,946.7
2017-11-10T03:38:19.996Z,946.7
2017-11-10T03:39:28.076Z,946.6
2017-11-10T03:40:36.173Z,946.6
2017-11-10T03:41:44.258Z,946.6
2017-11-10T03:42:52.464Z,946.6
2017-11-10T03:44:00.432Z,946.6
2017-11-10T03:45:08.516Z,946.5
2017-11-10T03:46:16.602Z,946.6
2017-11-10T03:47:24.688Z,946.6
2017-11-10T03:48:32.831Z,946.6
2017-11-10T03:49:40.860Z,946.5
2017-11-10T03:50:48.952Z,946.5
2017-11-10T03:51:57.032Z,946.4
2017-11-10T03:53:05.119Z,946.4
2017-11-10T03:54:13.262Z,946.4
2017-11-10T03:55:21.291Z,946.4
2017-11-10T03:56:29.461Z,946.4
2017-11-10T03:57:37.461Z,946.4
2017-11-10T03:58:45.548Z,946.4
2017-11-10T03:59:53.759Z,946.4
2017-11-10T04:01:01.728Z,946.4
2017-11-10T04:02:09.985Z,946.3
2017-11-10T04:03:18.088Z,946.3
2017-11-10T04:04:26.366Z,946.3
2017-11-10T04:05:34.300Z,946.4
2017-11-10T04:06:42.328Z,946.4
2017-11-10T04:07:50.413Z,946.5
2017-11-10T04:08:58.543Z,946.6
2017-11-10T04:10:06.587Z,946.6
2017-11-10T04:11:14.791Z,946.5
2017-11-10T04:12:22.758Z,946.5
2017-11-10T04:13:31.023Z,946.5
2017-11-10T04:14:39.107Z,946.5
2017-11-10T04:15:47.294Z,946.5
2017-11-10T04:16:55.452Z,946.5
2017-11-10T04:18:03.464Z,946.5
2017-11-10T04:19:11.549Z,946.6
2017-11-10T04:20:19.690Z,946.6
2017-11-10T04:21:27.723Z,946.6
2017-11-10T04:22:35.928Z,946.5
2017-11-10T04:23:43.893Z,946.5
2017-11-10T04:24:51.980Z,946.5
2017-11-10T04:26:00.183Z,946.5
2017-11-10T04:27:08.244Z,946.5
2017-11-10T04:28:16.292Z,946.5
2017-11-10T04:29:24.325Z,946.5
2017-11-10T04:30:32.553Z,946.5
2017-11-10T04:31:40.492Z,946.4
2017-11-10T04:32:48.585Z,946.4
2017-11-10T04:33:56.731Z,946.3
2017-11-10T04:35:04.764Z,946.3
2017-11-10T04:36:13.201Z,946.3
2017-11-10T04:37:21.154Z,946.4
2017-11-10T04:38:29.250Z,946.3
2017-11-10T04:39:37.492Z,946.4
2017-11-10T04:40:45.423Z,946.4
2017-11-10T04:41:53.506Z,946.4
2017-11-10T04:43:01.591Z,946.4
2017-11-10T04:44:09.676Z,946.4
2017-11-10T04:45:17.882Z,946.4
2017-11-10T04:46:25.851Z,946.4
2017-11-10T04:47:33.935Z,946.3
2017-11-10T04:48:42.022Z,946.2
2017-11-10T04:49:50.108Z,946.2
2017-11-10T04:50:58.250Z,946.2
2017-11-10T04:52:06.396Z,946.2
2017-11-10T04:53:14.462Z,946.2
2017-11-10T04:54:22.447Z,946.2
2017-11-10T04:55:30.535Z,946.2
2017-11-10T04:56:38.677Z,946.2
2017-11-10T04:57:46.876Z,946.2
2017-11-10T04:58:54.796Z,946.1
2017-11-10T05:00:02.881Z,946.2
2017-11-10T05:01:10.966Z,946.2
2017-11-10T05:02:19.298Z,946.2
2017-11-10T05:03:27.152Z,946.2
2017-11-10T05:04:35.252Z,946.2
2017-11-10T05:05:43.331Z,946.2
2017-11-10T05:06:51.590Z,946.2
2017-11-10T05:07:59.623Z,946.2
2017-11-10T05:09:07.589Z,946.2
2017-11-10T05:10:15.675Z,946.1
2017-11-10T05:11:23.931Z,946.1
2017-11-10T05:12:31.975Z,946.2
2017-11-10T05:13:40.020Z,946.3
2017-11-10T05:14:48.042Z,946.4
2017-11-10T05:15:56.295Z,946.4
2017-11-10T05:17:04.222Z,946.4
2017-11-10T05:18:12.304Z,946.4
2017-11-10T05:19:20.645Z,946.5
2017-11-10T05:20:28.478Z,946.5
2017-11-10T05:21:36.565Z,946.5
2017-11-10T05:22:44.656Z,946.5
2017-11-10T05:23:52.792Z,946.6
2017-11-10T05:25:00.957Z,946.7
2017-11-10T05:26:08.995Z,946.7
2017-11-10T05:27:16.998Z,946.7
2017-11-10T05:28:25.084Z,946.7
2017-11-10T05:29:33.168Z,946.6
2017-11-10T05:30:41.314Z,946.6
2017-11-10T05:31:49.880Z,946.5
2017-11-10T05:32:57.424Z,946.5
2017-11-10T05:34:05.563Z,946.5
2017-11-10T05:35:13.604Z,946.5
2017-11-10T05:36:21.741Z,946.5
2017-11-10T05:37:29.781Z,946.5
2017-11-10T05:38:38.000Z,946.5
2017-11-10T05:39:46.010Z,946.4
2017-11-10T05:40:54.033Z,946.4
2017-11-10T05:42:02.179Z,946.3
2017-11-10T05:43:11.016Z,946.3
2017-11-10T05:44:18.300Z,946.3
2017-11-10T05:45:26.427Z,946.3
2017-11-10T05:46:34.472Z,946.2
2017-11-10T05:47:42.668Z,946.3
2017-11-10T05:48:50.809Z,946.3
2017-11-10T05:49:58.759Z,946.3
2017-11-10T05:51:06.918Z,946.2
2017-11-10T05:52:14.995Z,946.2
2017-11-10T05:53:23.196Z,946.2
2017-11-10T05:54:31.221Z,946.1
2017-11-10T05:55:39.322Z,946.2
2017-11-10T05:56:47.286Z,946.1
2017-11-10T05:57:55.515Z,946.1
2017-11-10T05:59:05.613Z,946.2
2017-11-10T06:00:12.175Z,946.2
2017-11-10T06:01:20.113Z,946.2
2017-11-10T06:02:28.247Z,946.2
2017-11-10T06:03:35.803Z,946.2
2017-11-10T06:04:45.578Z,946.2
2017-11-10T06:05:52.646Z,946.2
2017-11-10T06:07:00.749Z,946.2
2017-11-10T06:08:08.580Z,946.2
2017-11-10T06:09:16.281Z,946.2
2017-11-10T06:10:24.627Z,946.2
2017-11-10T06:11:32.507Z,946.2
2017-11-10T06:12:40.543Z,946.3
2017-11-10T06:13:48.621Z,946.3
2017-11-10T06:14:56.705Z,946.4
2017-11-10T06:16:04.848Z,946.4
2017-11-10T06:17:12.878Z,946.5
2017-11-10T06:18:20.964Z,946.5
2017-11-10T06:19:29.056Z,946.5
2017-11-10T06:20:37.151Z,946.5
2017-11-10T06:21:45.295Z,946.5
2017-11-10T06:22:53.322Z,946.5
2017-11-10T06:24:01.411Z,946.5
2017-11-10T06:25:09.593Z,946.5
2017-11-10T06:26:17.579Z,946.5
2017-11-10T06:27:25.721Z,946.5
2017-11-10T06:28:33.751Z,946.5
2017-11-10T06:29:41.861Z,946.5
2017-11-10T06:30:49.931Z,946.5
2017-11-10T06:31:58.017Z,946.6
2017-11-10T06:33:06.160Z,946.6
2017-11-10T06:34:14.389Z,946.6
2017-11-10T06:35:22.272Z,946.6
2017-11-10T06:36:30.359Z,946.6
2017-11-10T06:37:38.444Z,946.6
2017-11-10T06:38:46.584Z,946.6
2017-11-10T06:39:54.612Z,946.7
2017-11-10T06:41:02.702Z,946.7
2017-11-10T06:42:10.785Z,946.7
2017-11-10T06:43:18.929Z,946.8
2017-11-10T06:44:27.070Z,946.7
2017-11-10T06:45:35.049Z,946.7
2017-11-10T06:46:43.129Z,946.7
2017-11-10T06:47:51.213Z,946.7
2017-11-10T06:48:59.447Z,946.8
2017-11-10T06:50:07.502Z,946.7
2017-11-10T06:51:15.466Z,946.8
2017-11-10T06:52:23.556Z,946.8
2017-11-10T06:53:31.636Z,946.8
2017-11-10T06:54:39.727Z,946.8
2017-11-10T06:55:47.868Z,946.8
2017-11-10T06:56:55.898Z,946.8
2017-11-10T06:58:03.978Z,946.8
2017-11-10T06:59:12.121Z,946.8
2017-11-10T07:00:20.149Z,946.8
2017-11-10T07:01:28.358Z,946.8
2017-11-10T07:02:36.323Z,946.8
2017-11-10T07:03:44.407Z,946.7
2017-11-10T07:04:52.511Z,946.8
2017-11-10T07:06:00.577Z,946.7
2017-11-10T07:07:08.785Z,946.8
2017-11-10T07:08:16.749Z,946.7
2017-11-10T07:09:24.853Z,946.7
2017-11-10T07:10:32.918Z,946.7
2017-11-10T07:11:41.072Z,946.7
2017-11-10T07:12:49.152Z,946.8
2017-11-10T07:13:57.181Z,946.7
2017-11-10T07:15:05.401Z,946.7
2017-11-10T07:16:13.423Z,946.7
2017-11-10T07:17:21.439Z,946.7
2017-11-10T07:18:29.577Z,946.8
2017-11-10T07:19:37.612Z,946.7
2017-11-10T07:20:45.692Z,946.7
2017-11-10T07:21:53.782Z,946.7
2017-11-10T07:23:01.872Z,946.7
2017-11-10T07:24:10.083Z,946.7
2017-11-10T07:25:18.205Z,946.7
2017-11-10T07:26:26.156Z,946.7
2017-11-10T07:27:34.219Z,946.6
2017-11-10T07:28:42.311Z,946.6
2017-11-10T07:29:50.447Z,946.7
2017-11-10T07:30:58.531Z,946.7
2017-11-10T07:32:06.561Z,946.6
2017-11-10T07:33:14.644Z,946.6
2017-11-10T07:34:22.738Z,946.6
2017-11-10T07:35:30.945Z,946.6
2017-11-10T07:36:38.910Z,946.6
2017-11-10T07:37:46.993Z,946.6
2017-11-10T07:38:55.155Z,946.6
2017-11-10T07:40:03.165Z,946.6
2017-11-10T07:41:11.302Z,946.7
2017-11-10T07:42:19.333Z,946.7
2017-11-10T07:43:27.420Z,946.7
2017-11-10T07:44:35.503Z,946.7
2017-11-10T07:45:43.590Z,946.7
2017-11-10T07:46:51.734Z,946.7
2017-11-10T07:47:59.761Z,946.7
2017-11-10T07:49:07.866Z,946.7
2017-11-10T07:50:15.948Z,946.7
2017-11-10T07:51:24.020Z,946.7
2017-11-10T07:52:32.164Z,946.7
2017-11-10T07:53:40.212Z,946.7
2017-11-10T07:54:48.277Z,946.7
2017-11-10T07:55:56.365Z,946.7
2017-11-10T07:57:04.457Z,946.6
2017-11-10T07:58:12.677Z,946.6
2017-11-10T07:59:20.641Z,946.7
2017-11-10T08:00:28.733Z,946.8
2017-11-10T08:01:36.812Z,946.8
2017-11-10T08:02:44.967Z,946.8
2017-11-10T08:03:53.103Z,946.9
2017-11-10T08:05:01.077Z,946.9
2017-11-10T08:06:09.154Z,946.8
2017-11-10T08:07:17.340Z,946.8
2017-11-10T08:08:25.379Z,946.7
2017-11-10T08:09:33.530Z,946.7
2017-11-10T08:10:41.496Z,946.7
2017-11-10T08:11:49.581Z,946.7
2017-11-10T08:12:57.666Z,946.6
2017-11-10T08:14:05.750Z,946.6
2017-11-10T08:15:13.893Z,946.6
2017-11-10T08:16:22.105Z,946.5
2017-11-10T08:17:30.010Z,946.5
2017-11-10T08:18:38.214Z,946.5
2017-11-10T08:19:46.177Z,946.5
2017-11-10T08:20:54.321Z,946.5
2017-11-10T08:22:02.350Z,946.5
2017-11-10T08:23:10.434Z,946.5
2017-11-10T08:24:18.518Z,946.5
2017-11-10T08:25:26.603Z,946.6
2017-11-10T08:26:34.745Z,946.6
2017-11-10T08:27:42.775Z,946.6
2017-11-10T08:28:50.870Z,946.6
2017-11-10T08:29:58.957Z,946.5
2017-11-10T08:31:07.041Z,946.5
2017-11-10T08:32:15.261Z,946.5
2017-11-10T08:33:23.211Z,946.5
2017-11-10T08:34:31.354Z,946.5
2017-11-10T08:35:39.385Z,946.5
2017-11-10T08:36:47.586Z,946.5
2017-11-10T08:37:55.788Z,946.5
2017-11-10T08:39:03.893Z,946.5
2017-11-10T08:40:11.839Z,946.6
2017-11-10T08:41:19.925Z,946.5
2017-11-10T08:42:28.010Z,946.6
2017-11-10T08:43:36.215Z,946.6
2017-11-10T08:44:44.179Z,946.6
2017-11-10T08:45:52.265Z,946.6
2017-11-10T08:47:00.352Z,946.6
2017-11-10T08:48:08.435Z,946.6
2017-11-10T08:49:16.577Z,946.5
2017-11-10T08:50:24.670Z,946.5
2017-11-10T08:51:32.695Z,946.4
2017-11-10T08:52:40.906Z,946.4
2017-11-10T08:53:48.943Z,946.4
2017-11-10T08:54:57.006Z,946.3
2017-11-10T08:56:05.039Z,946.3
2017-11-10T08:57:13.139Z,946.2
2017-11-10T08:58:21.207Z,946.2
2017-11-10T08:59:29.291Z,946.2
2017-11-10T09:00:37.435Z,946.1
2017-11-10T09:01:45.637Z,946.1
2017-11-10T09:02:53.550Z,946.1
2017-11-10T09:04:01.632Z,946.1
2017-11-10T09:05:09.717Z,946.1
2017-11-10T09:06:17.865Z,946.1
2017-11-10T09:07:25.977Z,946.1
2017-11-10T09:08:33.974Z,946.1
2017-11-10T09:09:42.060Z,946.2
2017-11-10T09:10:50.280Z,946.1
2017-11-10T09:11:58.484Z,946.1
2017-11-10T09:13:06.448Z,946.1
2017-11-10T09:14:14.532Z,946.1
2017-11-10T09:15:22.695Z,946.1
2017-11-10T09:16:30.717Z,946.1
2017-11-10T09:17:38.911Z,946.1
2017-11-10T09:18:46.898Z,946.1
2017-11-10T09:19:54.959Z,946.1
2017-11-10T09:21:03.120Z,946.1
2017-11-10T09:22:11.195Z,946.1
2017-11-10T09:23:19.349Z,946.1
2017-11-10T09:24:27.310Z,946.0
2017-11-10T09:25:35.548Z,946.0
2017-11-10T09:26:43.632Z,946.0
2017-11-10T09:27:51.717Z,946.0
2017-11-10T09:28:59.859Z,946.1
2017-11-10T09:30:07.889Z,946.1
2017-11-10T09:31:15.973Z,946.1
2017-11-10T09:32:24.076Z,946.1
2017-11-10T09:33:32.312Z,946.1
2017-11-10T09:34:40.524Z,946.1
2017-11-10T09:35:48.313Z,946.1
2017-11-10T09:36:56.410Z,946.1
2017-11-10T09:38:04.709Z,946.0
2017-11-10T09:39:12.573Z,946.1
2017-11-10T09:40:20.723Z,946.0
2017-11-10T09:41:28.764Z,946.0
2017-11-10T09:42:37.030Z,945.9
2017-11-10T09:43:44.933Z,945.9
2017-11-10T09:44:53.018Z,945.9
2017-11-10T09:46:01.162Z,945.9
2017-11-10T09:47:09.342Z,945.9
2017-11-10T09:48:17.278Z,946.0
2017-11-10T09:49:25.362Z,945.9
2017-11-10T09:50:33.463Z,945.9
2017-11-10T09:51:41.588Z,946.0
2017-11-10T09:52:49.617Z,945.9
2017-11-10T09:53:57.758Z,945.9
2017-11-10T09:55:05.789Z,945.8
2017-11-10T09:56:14.044Z,945.8
2017-11-10T09:57:22.040Z,945.8
2017-11-10T09:58:30.044Z,945.8
2017-11-10T09:59:38.129Z,945.8
2017-11-10T10:00:46.214Z,945.8
2017-11-10T10:01:54.325Z,945.8
2017-11-10T10:03:02.506Z,945.8
2017-11-10T10:04:10.470Z,945.8
2017-11-10T10:05:18.555Z,945.8
2017-11-10T10:06:26.662Z,945.7
2017-11-10T10:07:34.734Z,945.7
2017-11-10T10:08:42.937Z,945.7
2017-11-10T10:09:50.952Z,945.6
2017-11-10T10:10:58.987Z,945.7
2017-11-10T10:12:07.073Z,945.7
2017-11-10T10:13:15.160Z,945.7
2017-11-10T10:14:23.302Z,945.6
2017-11-10T10:15:31.410Z,945.6
2017-11-10T10:16:39.414Z,945.7
2017-11-10T10:17:47.502Z,945.6
2017-11-10T10:18:55.586Z,945.6
2017-11-10T10:20:03.728Z,945.6
2017-11-10T10:21:11.757Z,945.7
2017-11-10T10:22:19.853Z,945.6
2017-11-10T10:23:27.940Z,945.7
2017-11-10T10:24:36.111Z,945.6
2017-11-10T10:25:44.226Z,945.7
2017-11-10T10:26:52.190Z,945.6
2017-11-10T10:28:00.277Z,945.6
2017-11-10T10:29:08.361Z,945.6
2017-11-10T10:30:16.447Z,945.5
2017-11-10T10:31:24.590Z,945.6
2017-11-10T10:32:32.621Z,945.5
2017-11-10T10:33:40.820Z,945.5
2017-11-10T10:34:48.787Z,945.6
2017-11-10T10:35:56.921Z,945.6
2017-11-10T10:37:05.080Z,945.5
2017-11-10T10:38:13.161Z,945.5
2017-11-10T10:39:21.126Z,945.5
2017-11-10T10:40:29.212Z,945.5
2017-11-10T10:41:37.359Z,945.5
2017-11-10T10:42:45.502Z,945.5
2017-11-10T10:43:53.468Z,945.4
2017-11-10T10:45:01.552Z,945.4
2017-11-10T10:46:09.636Z,945.4
2017-11-10T10:47:17.721Z,945.4
2017-11-10T10:48:25.953Z,945.4
2017-11-10T10:49:33.892Z,945.4
2017-11-10T10:50:41.976Z,945.4
2017-11-10T10:51:50.061Z,945.4
2017-11-10T10:52:58.148Z,945.4
2017-11-10T10:54:06.289Z,945.3
2017-11-10T10:55:14.317Z,945.3
2017-11-10T10:56:22.552Z,945.3
2017-11-10T10:57:30.618Z,945.2
2017-11-10T10:58:38.571Z,945.2
2017-11-10T10:59:46.785Z,945.1
2017-11-10T11:00:54.896Z,945.1
2017-11-10T11:02:03.115Z,945.1
2017-11-10T11:03:11.201Z,945.1
2017-11-10T11:04:19.503Z,945.0
2017-11-10T11:05:27.642Z,945.0
2017-11-10T11:06:35.671Z,944.9
2017-11-10T11:07:43.755Z,945.0
2017-11-10T11:08:51.841Z,945.0
2017-11-10T11:09:59.926Z,945.0
2017-11-10T11:11:08.077Z,945.0
2017-11-10T11:12:16.101Z,945.0
2017-11-10T11:13:24.370Z,944.9
2017-11-10T11:14:32.265Z,944.9
2017-11-10T11:15:40.350Z,944.9
2017-11-10T11:16:48.489Z,944.8
2017-11-10T11:17:56.565Z,944.8
2017-11-10T11:19:04.602Z,944.8
2017-11-10T11:20:12.688Z,944.7
2017-11-10T11:21:20.774Z,944.7
2017-11-10T11:22:28.918Z,944.7
2017-11-10T11:23:37.028Z,944.8
2017-11-10T11:24:45.027Z,944.7
2017-11-10T11:25:53.110Z,944.7
2017-11-10T11:27:01.193Z,944.7
2017-11-10T11:28:09.501Z,944.7
2017-11-10T11:29:17.449Z,944.7
2017-11-10T11:30:25.445Z,944.7
2017-11-10T11:31:33.533Z,944.7
2017-11-10T11:32:41.621Z,944.6
2017-11-10T11:33:49.758Z,944.6
2017-11-10T11:34:57.787Z,944.6
2017-11-10T11:36:05.871Z,944.6
2017-11-10T11:37:14.042Z,944.5
2017-11-10T11:38:22.039Z,944.7
2017-11-10T11:39:30.180Z,944.6
2017-11-10T11:40:38.208Z,944.6
2017-11-10T11:41:46.301Z,944.6
2017-11-10T11:42:54.378Z,944.5
2017-11-10T11:44:02.465Z,944.5
2017-11-10T11:45:10.674Z,944.5
2017-11-10T11:46:18.628Z,944.4
2017-11-10T11:47:26.715Z,944.3
2017-11-10T11:48:34.799Z,944.4
2017-11-10T11:49:42.884Z,944.3
2017-11-10T11:50:51.073Z,944.4
2017-11-10T11:51:59.066Z,944.4
2017-11-10T11:53:07.137Z,944.4
2017-11-10T11:54:15.331Z,944.4
2017-11-10T11:55:23.363Z,944.3
2017-11-10T11:56:31.449Z,944.3
2017-11-10T11:57:39.479Z,944.3
2017-11-10T11:58:47.559Z,944.3
2017-11-10T11:59:55.686Z,944.3
2017-11-10T12:01:03.919Z,944.4
2017-11-10T12:02:11.881Z,944.3
2017-11-10T12:03:19.909Z,944.3
2017-11-10T12:04:28.151Z,944.3
2017-11-10T12:05:36.077Z,944.3
2017-11-10T12:06:44.163Z,944.3
2017-11-10T12:07:52.310Z,944.4
2017-11-10T12:09:00.331Z,944.3
2017-11-10T12:10:08.515Z,944.4
2017-11-10T12:11:16.499Z,944.3
2017-11-10T12:12:24.590Z,944.3
2017-11-10T12:13:32.728Z,944.3
2017-11-10T12:14:40.756Z,944.3
2017-11-10T12:15:48.840Z,944.3
2017-11-10T12:16:56.984Z,944.2
2017-11-10T12:18:05.009Z,944.2
2017-11-10T12:19:13.151Z,944.2
2017-11-10T12:20:21.234Z,944.2
2017-11-10T12:21:29.263Z,944.2
2017-11-10T12:22:37.348Z,944.2
2017-11-10T12:23:45.547Z,944.2
2017-11-10T12:24:53.572Z,944.2
2017-11-10T12:26:01.598Z,944.2
2017-11-10T12:27:09.684Z,944.2
2017-11-10T12:28:17.782Z,944.2
2017-11-10T12:29:25.867Z,944.2
2017-11-10T12:30:34.006Z,944.2
2017-11-10T12:31:42.034Z,944.1
2017-11-10T12:32:50.207Z,944.1
2017-11-10T12:33:58.202Z,944.1
2017-11-10T12:35:06.289Z,944.1
2017-11-10T12:36:14.426Z,944.1
2017-11-10T12:37:22.459Z,944.0
2017-11-10T12:38:30.539Z,944.0
2017-11-10T12:39:38.622Z,944.0
2017-11-10T12:40:46.707Z,944.0
2017-11-10T12:41:55.009Z,944.0
2017-11-10T12:43:02.874Z,944.0
2017-11-10T12:44:10.960Z,943.9
2017-11-10T12:45:19.044Z,943.9
2017-11-10T12:46:27.126Z,943.9
2017-11-10T12:47:35.276Z,943.9
2017-11-10T12:48:43.474Z,943.9
2017-11-10T12:49:51.389Z,943.9
2017-11-10T12:50:59.473Z,943.9
2017-11-10T12:52:07.565Z,943.9
2017-11-10T12:53:15.703Z,943.8
2017-11-10T12:54:23.744Z,943.8
2017-11-10T12:55:31.824Z,943.8
2017-11-10T12:56:39.986Z,943.8
2017-11-10T12:57:47.998Z,943.8
2017-11-10T12:58:56.210Z,943.8
2017-11-10T13:00:04.174Z,943.8
2017-11-10T13:01:12.353Z,943.8
2017-11-10T13:02:20.340Z,943.8
2017-11-10T13:03:28.424Z,943.8
2017-11-10T13:04:36.567Z,943.8
2017-11-10T13:05:44.597Z,943.7
2017-11-10T13:06:52.682Z,943.8
2017-11-10T13:08:00.772Z,943.7
2017-11-10T13:09:08.850Z,943.7
2017-11-10T13:10:16.997Z,943.7
2017-11-10T13:11:25.074Z,943.7
2017-11-10T13:12:33.102Z,943.6
2017-11-10T13:13:41.184Z,943.6
2017-11-10T13:14:49.306Z,943.6
2017-11-10T13:15:57.414Z,943.6
2017-11-10T13:17:05.462Z,943.6
2017-11-10T13:18:13.524Z,943.6
2017-11-10T13:19:21.607Z,943.5
2017-11-10T13:20:29.755Z,943.5
2017-11-10T13:21:37.848Z,943.6
2017-11-10T13:22:45.869Z,943.5
2017-11-10T13:23:54.083Z,943.5
2017-11-10T13:25:02.094Z,943.6
2017-11-10T13:26:10.130Z,943.5
2017-11-10T13:27:18.272Z,943.5
2017-11-10T13:28:26.302Z,943.5
2017-11-10T13:29:34.384Z,943.5
2017-11-10T13:30:42.467Z,943.5
2017-11-10T13:31:50.552Z,943.5
2017-11-10T13:32:58.693Z,943.5
2017-11-10T13:34:06.719Z,943.5
2017-11-10T13:35:14.803Z,943.4
2017-11-10T13:36:22.944Z,943.5
2017-11-10T13:37:31.133Z,943.4
2017-11-10T13:38:39.118Z,943.3
2017-11-10T13:39:47.182Z,943.4
2017-11-10T13:40:55.221Z,943.4
2017-11-10T13:42:03.307Z,943.4
2017-11-10T13:43:11.402Z,943.4
2017-11-10T13:44:19.531Z,943.4
2017-11-10T13:45:27.558Z,943.4
2017-11-10T13:46:35.639Z,943.4
2017-11-10T13:47:43.856Z,943.4
2017-11-10T13:48:51.812Z,943.4
2017-11-10T13:49:59.955Z,943.5
2017-11-10T13:51:07.986Z,943.5
2017-11-10T13:52:16.228Z,943.5
2017-11-10T13:53:24.198Z,943.5
2017-11-10T13:54:32.235Z,943.5
2017-11-10T13:55:40.374Z,943.5
2017-11-10T13:56:48.403Z,943.6
2017-11-10T13:57:56.486Z,943.6
2017-11-10T13:59:04.571Z,943.6
2017-11-10T14:00:12.654Z,943.5
2017-11-10T14:01:20.963Z,943.5
2017-11-10T14:02:28.823Z,943.5
2017-11-10T14:03:36.933Z,943.5
2017-11-10T14:04:44.988Z,943.5
2017-11-10T14:05:53.253Z,943.5
2017-11-10T14:07:01.234Z,943.4
2017-11-10T14:08:09.324Z,943.5
2017-11-10T14:09:17.349Z,943.4
2017-11-10T14:10:25.427Z,943.4
2017-11-10T14:11:33.512Z,943.4
2017-11-10T14:12:41.657Z,943.4
2017-11-10T14:13:49.681Z,943.4
2017-11-10T14:14:57.778Z,943.4
2017-11-10T14:16:05.972Z,943.4
2017-11-10T14:17:13.937Z,943.4
2017-11-10T14:18:22.076Z,943.4
2017-11-10T14:19:30.102Z,943.4
2017-11-10T14:20:38.204Z,943.4
2017-11-10T14:21:46.270Z,943.3
2017-11-10T14:22:54.364Z,943.3
2017-11-10T14:24:02.493Z,943.4
2017-11-10T14:25:10.521Z,943.3
2017-11-10T14:26:18.615Z,943.3
2017-11-10T14:27:26.689Z,943.3
2017-11-10T14:28:34.771Z,943.3
2017-11-10T14:29:42.961Z,943.3
2017-11-10T14:30:50.965Z,943.4
2017-11-10T14:31:59.023Z,943.3
2017-11-10T14:33:07.106Z,943.3
2017-11-10T14:34:15.259Z,943.2
2017-11-10T14:35:23.329Z,943.3
2017-11-10T14:36:31.360Z,943.2